sensor_id;sensor_type;location;lat;lon;timestamp;P1;durP1;ratioP1;P2;durP2;ratioP2
27505;SDS011;14939;43.596;1.320;2023-12-07T00:00:34;139.10;;;84.97;;
27505;SDS011;14939;43.596;1.320;2023-12-07T00:03:00;134.43;;;82.07;;
27505;SDS011;14939;43.596;1.320;2023-12-07T00:05:25;170.27;;;92.68;;
27505;SDS011;14939;43.596;1.320;2023-12-07T00:07:51;159.02;;;88.68;;
27505;SDS011;14939;43.596;1.320;2023-12-07T00:10:17;160.93;;;87.80;;
27505;SDS011;14939;43.596;1.320;2023-12-07T00:12:42;148.48;;;82.80;;
27505;SDS011;14939;43.596;1.320;2023-12-07T00:15:08;136.07;;;76.85;;
27505;SDS011;14939;43.596;1.320;2023-12-07T00:17:34;144.20;;;80.10;;
27505;SDS011;14939;43.596;1.320;2023-12-07T00:20:00;135.68;;;76.88;;
27505;SDS011;14939;43.596;1.320;2023-12-07T00:22:25;136.25;;;80.60;;
27505;SDS011;14939;43.596;1.320;2023-12-07T00:24:51;139.60;;;80.72;;
27505;SDS011;14939;43.596;1.320;2023-12-07T00:27:17;129.30;;;78.40;;
27505;SDS011;14939;43.596;1.320;2023-12-07T00:29:43;143.18;;;86.75;;
27505;SDS011;14939;43.596;1.320;2023-12-07T00:32:09;128.52;;;77.05;;
27505;SDS011;14939;43.596;1.320;2023-12-07T00:34:35;130.02;;;77.68;;
27505;SDS011;14939;43.596;1.320;2023-12-07T00:37:00;133.50;;;78.82;;
27505;SDS011;14939;43.596;1.320;2023-12-07T00:39:26;172.35;;;97.60;;
27505;SDS011;14939;43.596;1.320;2023-12-07T00:41:52;167.45;;;89.95;;
27505;SDS011;14939;43.596;1.320;2023-12-07T00:44:17;171.38;;;97.10;;
27505;SDS011;14939;43.596;1.320;2023-12-07T00:46:43;151.05;;;89.97;;
27505;SDS011;14939;43.596;1.320;2023-12-07T00:49:09;164.13;;;91.88;;
27505;SDS011;14939;43.596;1.320;2023-12-07T00:51:35;169.00;;;94.68;;
27505;SDS011;14939;43.596;1.320;2023-12-07T00:54:00;202.70;;;105.25;;
27505;SDS011;14939;43.596;1.320;2023-12-07T00:56:26;222.40;;;100.82;;
27505;SDS011;14939;43.596;1.320;2023-12-07T00:58:52;392.75;;;156.13;;
27505;SDS011;14939;43.596;1.320;2023-12-07T01:01:17;190.57;;;94.82;;
27505;SDS011;14939;43.596;1.320;2023-12-07T01:03:43;193.88;;;102.35;;
27505;SDS011;14939;43.596;1.320;2023-12-07T01:06:09;242.00;;;111.72;;
27505;SDS011;14939;43.596;1.320;2023-12-07T01:08:36;280.77;;;119.78;;
27505;SDS011;14939;43.596;1.320;2023-12-07T01:11:03;193.13;;;89.93;;
27505;SDS011;14939;43.596;1.320;2023-12-07T01:13:29;202.93;;;91.60;;
27505;SDS011;14939;43.596;1.320;2023-12-07T01:15:55;153.48;;;80.90;;
27505;SDS011;14939;43.596;1.320;2023-12-07T01:18:21;242.38;;;92.03;;
27505;SDS011;14939;43.596;1.320;2023-12-07T01:20:46;436.60;;;152.50;;
27505;SDS011;14939;43.596;1.320;2023-12-07T01:23:13;299.92;;;103.63;;
27505;SDS011;14939;43.596;1.320;2023-12-07T01:25:39;201.55;;;88.63;;
27505;SDS011;14939;43.596;1.320;2023-12-07T01:28:04;203.50;;;90.80;;
27505;SDS011;14939;43.596;1.320;2023-12-07T01:30:30;301.98;;;99.25;;
27505;SDS011;14939;43.596;1.320;2023-12-07T01:32:56;194.52;;;78.32;;
27505;SDS011;14939;43.596;1.320;2023-12-07T01:35:22;177.18;;;80.10;;
27505;SDS011;14939;43.596;1.320;2023-12-07T01:37:47;150.95;;;71.20;;
27505;SDS011;14939;43.596;1.320;2023-12-07T01:40:13;164.50;;;72.50;;
27505;SDS011;14939;43.596;1.320;2023-12-07T01:42:40;144.73;;;78.05;;
27505;SDS011;14939;43.596;1.320;2023-12-07T01:45:13;126.03;;;67.40;;
27505;SDS011;14939;43.596;1.320;2023-12-07T01:47:39;120.13;;;68.63;;
27505;SDS011;14939;43.596;1.320;2023-12-07T01:50:06;171.73;;;90.20;;
27505;SDS011;14939;43.596;1.320;2023-12-07T01:52:34;106.47;;;62.92;;
27505;SDS011;14939;43.596;1.320;2023-12-07T01:55:03;99.45;;;62.13;;
27505;SDS011;14939;43.596;1.320;2023-12-07T01:57:30;105.10;;;61.47;;
27505;SDS011;14939;43.596;1.320;2023-12-07T01:59:56;94.05;;;57.08;;
27505;SDS011;14939;43.596;1.320;2023-12-07T02:02:21;99.28;;;55.15;;
27505;SDS011;14939;43.596;1.320;2023-12-07T02:04:47;105.05;;;59.70;;
27505;SDS011;14939;43.596;1.320;2023-12-07T02:07:13;107.47;;;59.45;;
27505;SDS011;14939;43.596;1.320;2023-12-07T02:09:39;106.20;;;59.60;;
27505;SDS011;14939;43.596;1.320;2023-12-07T02:12:05;97.22;;;57.55;;
27505;SDS011;14939;43.596;1.320;2023-12-07T02:14:30;114.13;;;61.63;;
27505;SDS011;14939;43.596;1.320;2023-12-07T02:20:06;90.25;;;51.00;;
27505;SDS011;14939;43.596;1.320;2023-12-07T02:22:42;88.68;;;54.13;;
27505;SDS011;14939;43.596;1.320;2023-12-07T02:25:11;92.40;;;54.17;;
27505;SDS011;14939;43.596;1.320;2023-12-07T02:30:05;91.00;;;53.28;;
27505;SDS011;14939;43.596;1.320;2023-12-07T02:32:38;84.40;;;50.15;;
27505;SDS011;14939;43.596;1.320;2023-12-07T02:35:06;88.60;;;51.85;;
27505;SDS011;14939;43.596;1.320;2023-12-07T02:37:34;97.57;;;53.95;;
27505;SDS011;14939;43.596;1.320;2023-12-07T02:40:06;81.93;;;49.63;;
27505;SDS011;14939;43.596;1.320;2023-12-07T02:42:37;81.93;;;47.63;;
27505;SDS011;14939;43.596;1.320;2023-12-07T02:45:06;98.80;;;55.72;;
27505;SDS011;14939;43.596;1.320;2023-12-07T02:47:32;121.85;;;57.85;;
27505;SDS011;14939;43.596;1.320;2023-12-07T02:49:58;140.30;;;59.50;;
27505;SDS011;14939;43.596;1.320;2023-12-07T02:52:24;139.70;;;65.38;;
27505;SDS011;14939;43.596;1.320;2023-12-07T02:54:50;124.50;;;59.13;;
27505;SDS011;14939;43.596;1.320;2023-12-07T02:57:15;102.15;;;51.05;;
27505;SDS011;14939;43.596;1.320;2023-12-07T02:59:41;85.97;;;50.60;;
27505;SDS011;14939;43.596;1.320;2023-12-07T03:02:06;166.77;;;60.60;;
27505;SDS011;14939;43.596;1.320;2023-12-07T03:04:32;144.88;;;62.08;;
27505;SDS011;14939;43.596;1.320;2023-12-07T03:06:58;210.85;;;74.28;;
27505;SDS011;14939;43.596;1.320;2023-12-07T03:09:24;119.57;;;53.33;;
27505;SDS011;14939;43.596;1.320;2023-12-07T03:11:50;133.00;;;53.38;;
27505;SDS011;14939;43.596;1.320;2023-12-07T03:14:16;102.13;;;48.85;;
27505;SDS011;14939;43.596;1.320;2023-12-07T03:16:41;225.13;;;60.20;;
27505;SDS011;14939;43.596;1.320;2023-12-07T03:19:07;131.68;;;45.88;;
27505;SDS011;14939;43.596;1.320;2023-12-07T03:21:32;168.38;;;44.03;;
27505;SDS011;14939;43.596;1.320;2023-12-07T03:23:58;91.00;;;40.20;;
27505;SDS011;14939;43.596;1.320;2023-12-07T03:26:24;90.65;;;43.08;;
27505;SDS011;14939;43.596;1.320;2023-12-07T03:28:49;211.70;;;54.50;;
27505;SDS011;14939;43.596;1.320;2023-12-07T03:31:15;99.32;;;43.92;;
27505;SDS011;14939;43.596;1.320;2023-12-07T03:33:44;123.35;;;46.80;;
27505;SDS011;14939;43.596;1.320;2023-12-07T03:36:12;72.70;;;38.85;;
27505;SDS011;14939;43.596;1.320;2023-12-07T03:38:38;68.53;;;37.30;;
27505;SDS011;14939;43.596;1.320;2023-12-07T03:41:04;72.03;;;37.50;;
27505;SDS011;14939;43.596;1.320;2023-12-07T03:43:29;107.88;;;47.30;;
27505;SDS011;14939;43.596;1.320;2023-12-07T03:45:55;104.50;;;38.40;;
27505;SDS011;14939;43.596;1.320;2023-12-07T03:48:20;100.53;;;33.42;;
27505;SDS011;14939;43.596;1.320;2023-12-07T03:50:46;67.38;;;32.75;;
27505;SDS011;14939;43.596;1.320;2023-12-07T03:53:12;92.05;;;37.30;;
27505;SDS011;14939;43.596;1.320;2023-12-07T03:55:37;97.13;;;37.28;;
27505;SDS011;14939;43.596;1.320;2023-12-07T03:58:04;131.80;;;42.05;;
27505;SDS011;14939;43.596;1.320;2023-12-07T04:00:30;80.40;;;35.22;;
27505;SDS011;14939;43.596;1.320;2023-12-07T04:02:57;68.47;;;33.08;;
27505;SDS011;14939;43.596;1.320;2023-12-07T04:05:23;79.10;;;35.33;;
27505;SDS011;14939;43.596;1.320;2023-12-07T04:07:48;78.10;;;35.67;;
27505;SDS011;14939;43.596;1.320;2023-12-07T04:10:14;76.78;;;37.58;;
27505;SDS011;14939;43.596;1.320;2023-12-07T04:12:40;64.35;;;35.67;;
27505;SDS011;14939;43.596;1.320;2023-12-07T04:15:06;76.63;;;36.30;;
27505;SDS011;14939;43.596;1.320;2023-12-07T04:17:32;73.50;;;36.08;;
27505;SDS011;14939;43.596;1.320;2023-12-07T04:19:57;66.63;;;35.22;;
27505;SDS011;14939;43.596;1.320;2023-12-07T04:22:23;60.10;;;35.03;;
27505;SDS011;14939;43.596;1.320;2023-12-07T04:24:48;60.83;;;35.65;;
27505;SDS011;14939;43.596;1.320;2023-12-07T04:27:14;59.70;;;33.85;;
27505;SDS011;14939;43.596;1.320;2023-12-07T04:29:40;63.20;;;37.03;;
27505;SDS011;14939;43.596;1.320;2023-12-07T04:32:06;61.10;;;37.10;;
27505;SDS011;14939;43.596;1.320;2023-12-07T04:34:32;55.40;;;32.67;;
27505;SDS011;14939;43.596;1.320;2023-12-07T04:36:58;58.83;;;33.38;;
27505;SDS011;14939;43.596;1.320;2023-12-07T04:39:24;60.78;;;35.65;;
27505;SDS011;14939;43.596;1.320;2023-12-07T04:41:50;63.92;;;36.75;;
27505;SDS011;14939;43.596;1.320;2023-12-07T04:44:16;63.15;;;34.30;;
27505;SDS011;14939;43.596;1.320;2023-12-07T04:46:42;54.70;;;32.78;;
27505;SDS011;14939;43.596;1.320;2023-12-07T04:49:08;54.63;;;32.95;;
27505;SDS011;14939;43.596;1.320;2023-12-07T04:51:34;52.05;;;32.00;;
27505;SDS011;14939;43.596;1.320;2023-12-07T04:53:59;52.83;;;31.23;;
27505;SDS011;14939;43.596;1.320;2023-12-07T04:56:25;54.75;;;32.50;;
27505;SDS011;14939;43.596;1.320;2023-12-07T04:58:51;50.55;;;31.30;;
27505;SDS011;14939;43.596;1.320;2023-12-07T05:01:16;59.92;;;35.78;;
27505;SDS011;14939;43.596;1.320;2023-12-07T05:03:44;52.20;;;32.67;;
27505;SDS011;14939;43.596;1.320;2023-12-07T05:06:10;57.95;;;33.72;;
27505;SDS011;14939;43.596;1.320;2023-12-07T05:08:36;54.05;;;32.22;;
27505;SDS011;14939;43.596;1.320;2023-12-07T05:11:04;53.33;;;32.17;;
27505;SDS011;14939;43.596;1.320;2023-12-07T05:13:31;58.38;;;34.75;;
27505;SDS011;14939;43.596;1.320;2023-12-07T05:15:58;52.40;;;32.53;;
27505;SDS011;14939;43.596;1.320;2023-12-07T05:18:24;57.53;;;34.03;;
27505;SDS011;14939;43.596;1.320;2023-12-07T05:20:50;50.90;;;32.53;;
27505;SDS011;14939;43.596;1.320;2023-12-07T05:23:16;57.42;;;33.95;;
27505;SDS011;14939;43.596;1.320;2023-12-07T05:25:42;53.25;;;33.80;;
27505;SDS011;14939;43.596;1.320;2023-12-07T05:28:08;53.90;;;33.42;;
27505;SDS011;14939;43.596;1.320;2023-12-07T05:30:35;53.80;;;31.95;;
27505;SDS011;14939;43.596;1.320;2023-12-07T05:33:01;55.25;;;32.58;;
27505;SDS011;14939;43.596;1.320;2023-12-07T05:35:27;59.40;;;34.40;;
27505;SDS011;14939;43.596;1.320;2023-12-07T05:37:53;52.22;;;31.13;;
27505;SDS011;14939;43.596;1.320;2023-12-07T05:40:18;53.13;;;31.23;;
27505;SDS011;14939;43.596;1.320;2023-12-07T05:42:47;44.17;;;28.77;;
27505;SDS011;14939;43.596;1.320;2023-12-07T05:45:14;44.47;;;28.27;;
27505;SDS011;14939;43.596;1.320;2023-12-07T05:47:39;47.35;;;28.67;;
27505;SDS011;14939;43.596;1.320;2023-12-07T05:50:05;50.97;;;30.88;;
27505;SDS011;14939;43.596;1.320;2023-12-07T05:52:31;47.85;;;31.10;;
27505;SDS011;14939;43.596;1.320;2023-12-07T05:54:57;50.90;;;28.30;;
27505;SDS011;14939;43.596;1.320;2023-12-07T05:57:23;51.55;;;30.90;;
27505;SDS011;14939;43.596;1.320;2023-12-07T05:59:48;48.25;;;28.40;;
27505;SDS011;14939;43.596;1.320;2023-12-07T06:02:14;52.05;;;31.17;;
27505;SDS011;14939;43.596;1.320;2023-12-07T06:04:40;96.38;;;50.05;;
27505;SDS011;14939;43.596;1.320;2023-12-07T06:07:06;105.38;;;51.80;;
27505;SDS011;14939;43.596;1.320;2023-12-07T06:09:31;100.20;;;52.78;;
27505;SDS011;14939;43.596;1.320;2023-12-07T06:11:57;82.50;;;46.75;;
27505;SDS011;14939;43.596;1.320;2023-12-07T06:14:23;69.72;;;40.33;;
27505;SDS011;14939;43.596;1.320;2023-12-07T06:16:49;53.70;;;32.70;;
27505;SDS011;14939;43.596;1.320;2023-12-07T06:19:14;54.03;;;32.83;;
27505;SDS011;14939;43.596;1.320;2023-12-07T06:21:40;50.75;;;30.33;;
27505;SDS011;14939;43.596;1.320;2023-12-07T06:24:06;56.35;;;33.80;;
27505;SDS011;14939;43.596;1.320;2023-12-07T06:26:32;44.28;;;29.02;;
27505;SDS011;14939;43.596;1.320;2023-12-07T06:28:58;47.47;;;29.52;;
27505;SDS011;14939;43.596;1.320;2023-12-07T06:31:23;52.97;;;32.50;;
27505;SDS011;14939;43.596;1.320;2023-12-07T06:33:49;78.68;;;46.75;;
27505;SDS011;14939;43.596;1.320;2023-12-07T06:36:18;72.72;;;42.38;;
27505;SDS011;14939;43.596;1.320;2023-12-07T06:38:45;53.50;;;33.30;;
27505;SDS011;14939;43.596;1.320;2023-12-07T06:41:11;58.42;;;35.63;;
27505;SDS011;14939;43.596;1.320;2023-12-07T06:43:36;59.20;;;34.97;;
27505;SDS011;14939;43.596;1.320;2023-12-07T06:46:02;53.28;;;31.13;;
27505;SDS011;14939;43.596;1.320;2023-12-07T06:48:28;48.03;;;28.55;;
27505;SDS011;14939;43.596;1.320;2023-12-07T06:50:54;41.97;;;28.45;;
27505;SDS011;14939;43.596;1.320;2023-12-07T06:53:20;50.33;;;29.33;;
27505;SDS011;14939;43.596;1.320;2023-12-07T06:55:45;42.95;;;25.45;;
27505;SDS011;14939;43.596;1.320;2023-12-07T06:58:11;39.00;;;23.45;;
27505;SDS011;14939;43.596;1.320;2023-12-07T07:00:37;35.25;;;20.83;;
27505;SDS011;14939;43.596;1.320;2023-12-07T07:03:02;38.53;;;20.55;;
27505;SDS011;14939;43.596;1.320;2023-12-07T07:05:28;35.50;;;18.88;;
27505;SDS011;14939;43.596;1.320;2023-12-07T07:07:53;36.97;;;18.70;;
27505;SDS011;14939;43.596;1.320;2023-12-07T07:10:20;33.28;;;18.08;;
27505;SDS011;14939;43.596;1.320;2023-12-07T07:12:46;31.30;;;18.38;;
27505;SDS011;14939;43.596;1.320;2023-12-07T07:15:12;32.45;;;19.25;;
27505;SDS011;14939;43.596;1.320;2023-12-07T07:17:37;31.92;;;18.98;;
27505;SDS011;14939;43.596;1.320;2023-12-07T07:20:03;40.88;;;17.42;;
27505;SDS011;14939;43.596;1.320;2023-12-07T07:22:29;29.48;;;15.30;;
27505;SDS011;14939;43.596;1.320;2023-12-07T07:24:55;28.23;;;15.65;;
27505;SDS011;14939;43.596;1.320;2023-12-07T07:27:21;29.88;;;15.68;;
27505;SDS011;14939;43.596;1.320;2023-12-07T07:29:47;28.25;;;15.02;;
27505;SDS011;14939;43.596;1.320;2023-12-07T07:32:12;36.50;;;15.60;;
27505;SDS011;14939;43.596;1.320;2023-12-07T07:34:38;38.58;;;16.73;;
27505;SDS011;14939;43.596;1.320;2023-12-07T07:37:04;29.30;;;15.80;;
27505;SDS011;14939;43.596;1.320;2023-12-07T07:39:32;33.13;;;17.30;;
27505;SDS011;14939;43.596;1.320;2023-12-07T07:41:57;33.47;;;18.88;;
27505;SDS011;14939;43.596;1.320;2023-12-07T07:44:23;38.47;;;21.40;;
27505;SDS011;14939;43.596;1.320;2023-12-07T07:46:48;36.20;;;21.23;;
27505;SDS011;14939;43.596;1.320;2023-12-07T07:49:14;38.33;;;20.58;;
27505;SDS011;14939;43.596;1.320;2023-12-07T07:51:40;37.22;;;20.92;;
27505;SDS011;14939;43.596;1.320;2023-12-07T07:54:05;33.83;;;21.52;;
27505;SDS011;14939;43.596;1.320;2023-12-07T07:56:31;37.35;;;21.75;;
27505;SDS011;14939;43.596;1.320;2023-12-07T07:58:56;36.67;;;20.27;;
27505;SDS011;14939;43.596;1.320;2023-12-07T08:01:25;44.28;;;22.55;;
27505;SDS011;14939;43.596;1.320;2023-12-07T08:03:51;33.50;;;20.13;;
27505;SDS011;14939;43.596;1.320;2023-12-07T08:06:16;29.60;;;17.45;;
27505;SDS011;14939;43.596;1.320;2023-12-07T08:08:42;30.42;;;18.13;;
27505;SDS011;14939;43.596;1.320;2023-12-07T08:11:08;34.15;;;19.15;;
27505;SDS011;14939;43.596;1.320;2023-12-07T08:13:34;30.90;;;18.65;;
27505;SDS011;14939;43.596;1.320;2023-12-07T08:15:59;29.27;;;17.73;;
27505;SDS011;14939;43.596;1.320;2023-12-07T08:18:26;42.60;;;23.52;;
27505;SDS011;14939;43.596;1.320;2023-12-07T08:20:51;36.00;;;21.25;;
27505;SDS011;14939;43.596;1.320;2023-12-07T08:23:17;50.20;;;28.63;;
27505;SDS011;14939;43.596;1.320;2023-12-07T08:25:42;52.30;;;30.88;;
27505;SDS011;14939;43.596;1.320;2023-12-07T08:28:08;57.95;;;33.35;;
27505;SDS011;14939;43.596;1.320;2023-12-07T08:30:35;52.58;;;29.67;;
27505;SDS011;14939;43.596;1.320;2023-12-07T08:33:01;50.97;;;33.08;;
27505;SDS011;14939;43.596;1.320;2023-12-07T08:35:26;44.35;;;28.35;;
27505;SDS011;14939;43.596;1.320;2023-12-07T08:37:52;54.83;;;32.22;;
27505;SDS011;14939;43.596;1.320;2023-12-07T08:40:18;58.58;;;39.80;;
27505;SDS011;14939;43.596;1.320;2023-12-07T08:42:45;63.53;;;41.53;;
27505;SDS011;14939;43.596;1.320;2023-12-07T08:45:11;75.63;;;41.35;;
27505;SDS011;14939;43.596;1.320;2023-12-07T08:47:38;35.83;;;23.38;;
27505;SDS011;14939;43.596;1.320;2023-12-07T08:50:04;81.25;;;59.75;;
27505;SDS011;14939;43.596;1.320;2023-12-07T08:52:32;80.53;;;57.00;;
27505;SDS011;14939;43.596;1.320;2023-12-07T08:54:58;40.80;;;28.30;;
27505;SDS011;14939;43.596;1.320;2023-12-07T08:57:24;27.52;;;17.27;;
27505;SDS011;14939;43.596;1.320;2023-12-07T08:59:50;29.48;;;15.32;;
27505;SDS011;14939;43.596;1.320;2023-12-07T09:02:15;21.30;;;12.57;;
27505;SDS011;14939;43.596;1.320;2023-12-07T09:04:41;26.75;;;13.25;;
27505;SDS011;14939;43.596;1.320;2023-12-07T09:07:06;23.50;;;13.45;;
27505;SDS011;14939;43.596;1.320;2023-12-07T09:09:34;25.20;;;14.02;;
27505;SDS011;14939;43.596;1.320;2023-12-07T09:11:59;25.23;;;13.50;;
27505;SDS011;14939;43.596;1.320;2023-12-07T09:14:25;61.78;;;44.65;;
27505;SDS011;14939;43.596;1.320;2023-12-07T09:16:51;30.23;;;21.42;;
27505;SDS011;14939;43.596;1.320;2023-12-07T09:19:17;24.67;;;13.82;;
27505;SDS011;14939;43.596;1.320;2023-12-07T09:21:43;21.40;;;11.75;;
27505;SDS011;14939;43.596;1.320;2023-12-07T09:24:09;17.48;;;11.15;;
27505;SDS011;14939;43.596;1.320;2023-12-07T09:26:34;20.02;;;11.77;;
27505;SDS011;14939;43.596;1.320;2023-12-07T09:29:01;21.30;;;12.00;;
27505;SDS011;14939;43.596;1.320;2023-12-07T09:31:27;18.50;;;11.48;;
27505;SDS011;14939;43.596;1.320;2023-12-07T09:33:53;29.08;;;15.63;;
27505;SDS011;14939;43.596;1.320;2023-12-07T09:36:19;20.95;;;12.82;;
27505;SDS011;14939;43.596;1.320;2023-12-07T09:38:46;22.02;;;13.43;;
27505;SDS011;14939;43.596;1.320;2023-12-07T09:41:12;20.95;;;13.52;;
27505;SDS011;14939;43.596;1.320;2023-12-07T09:43:37;20.85;;;13.18;;
27505;SDS011;14939;43.596;1.320;2023-12-07T09:46:04;23.63;;;13.73;;
27505;SDS011;14939;43.596;1.320;2023-12-07T09:48:31;21.95;;;13.52;;
27505;SDS011;14939;43.596;1.320;2023-12-07T09:50:57;23.70;;;14.23;;
27505;SDS011;14939;43.596;1.320;2023-12-07T09:53:26;22.38;;;14.98;;
27505;SDS011;14939;43.596;1.320;2023-12-07T09:55:54;25.40;;;14.80;;
27505;SDS011;14939;43.596;1.320;2023-12-07T09:58:19;28.42;;;16.05;;
27505;SDS011;14939;43.596;1.320;2023-12-07T10:00:46;30.50;;;17.10;;
27505;SDS011;14939;43.596;1.320;2023-12-07T10:03:22;27.92;;;16.67;;
27505;SDS011;14939;43.596;1.320;2023-12-07T10:05:55;28.33;;;17.85;;
27505;SDS011;14939;43.596;1.320;2023-12-07T10:08:40;28.27;;;15.95;;
27505;SDS011;14939;43.596;1.320;2023-12-07T10:11:09;26.45;;;15.80;;
27505;SDS011;14939;43.596;1.320;2023-12-07T10:13:37;27.38;;;16.25;;
27505;SDS011;14939;43.596;1.320;2023-12-07T10:18:32;17.88;;;11.90;;
27505;SDS011;14939;43.596;1.320;2023-12-07T10:20:58;15.68;;;9.52;;
27505;SDS011;14939;43.596;1.320;2023-12-07T10:23:23;14.05;;;8.02;;
27505;SDS011;14939;43.596;1.320;2023-12-07T10:25:51;5.90;;;3.95;;
27505;SDS011;14939;43.596;1.320;2023-12-07T10:28:17;5.80;;;3.33;;
27505;SDS011;14939;43.596;1.320;2023-12-07T10:30:44;6.35;;;3.50;;
27505;SDS011;14939;43.596;1.320;2023-12-07T10:33:10;7.82;;;3.42;;
27505;SDS011;14939;43.596;1.320;2023-12-07T10:35:38;6.60;;;3.08;;
27505;SDS011;14939;43.596;1.320;2023-12-07T10:38:05;5.57;;;3.05;;
27505;SDS011;14939;43.596;1.320;2023-12-07T10:40:30;8.07;;;3.50;;
27505;SDS011;14939;43.596;1.320;2023-12-07T10:42:57;6.72;;;2.90;;
27505;SDS011;14939;43.596;1.320;2023-12-07T10:45:26;7.18;;;3.05;;
27505;SDS011;14939;43.596;1.320;2023-12-07T10:47:56;6.55;;;3.67;;
27505;SDS011;14939;43.596;1.320;2023-12-07T10:50:29;7.50;;;3.95;;
27505;SDS011;14939;43.596;1.320;2023-12-07T10:52:57;5.40;;;3.78;;
27505;SDS011;14939;43.596;1.320;2023-12-07T10:55:28;6.45;;;3.33;;
27505;SDS011;14939;43.596;1.320;2023-12-07T10:57:55;10.60;;;3.60;;
27505;SDS011;14939;43.596;1.320;2023-12-07T11:00:21;12.10;;;3.72;;
27505;SDS011;14939;43.596;1.320;2023-12-07T11:02:52;9.00;;;3.70;;
27505;SDS011;14939;43.596;1.320;2023-12-07T11:05:18;10.07;;;3.90;;
27505;SDS011;14939;43.596;1.320;2023-12-07T11:07:58;8.18;;;4.20;;
27505;SDS011;14939;43.596;1.320;2023-12-07T11:10:39;7.93;;;3.90;;
27505;SDS011;14939;43.596;1.320;2023-12-07T11:13:17;9.52;;;3.92;;
27505;SDS011;14939;43.596;1.320;2023-12-07T11:18:12;7.60;;;4.22;;
27505;SDS011;14939;43.596;1.320;2023-12-07T11:20:45;6.80;;;3.70;;
27505;SDS011;14939;43.596;1.320;2023-12-07T11:23:17;6.10;;;3.28;;
27505;SDS011;14939;43.596;1.320;2023-12-07T11:25:44;8.98;;;3.42;;
27505;SDS011;14939;43.596;1.320;2023-12-07T11:28:11;10.40;;;2.97;;
27505;SDS011;14939;43.596;1.320;2023-12-07T11:30:38;6.97;;;3.15;;
27505;SDS011;14939;43.596;1.320;2023-12-07T11:33:07;8.75;;;3.35;;
27505;SDS011;14939;43.596;1.320;2023-12-07T11:38:29;8.15;;;3.63;;
27505;SDS011;14939;43.596;1.320;2023-12-07T11:40:55;8.88;;;3.30;;
27505;SDS011;14939;43.596;1.320;2023-12-07T11:46:06;7.43;;;3.42;;
27505;SDS011;14939;43.596;1.320;2023-12-07T11:48:32;7.82;;;3.10;;
27505;SDS011;14939;43.596;1.320;2023-12-07T11:51:02;11.02;;;3.88;;
27505;SDS011;14939;43.596;1.320;2023-12-07T11:53:30;7.70;;;3.17;;
27505;SDS011;14939;43.596;1.320;2023-12-07T11:56:00;5.70;;;3.13;;
27505;SDS011;14939;43.596;1.320;2023-12-07T11:58:29;6.35;;;3.17;;
27505;SDS011;14939;43.596;1.320;2023-12-07T12:00:55;7.35;;;3.53;;
27505;SDS011;14939;43.596;1.320;2023-12-07T12:03:25;10.38;;;3.80;;
27505;SDS011;14939;43.596;1.320;2023-12-07T12:05:52;5.72;;;3.28;;
27505;SDS011;14939;43.596;1.320;2023-12-07T12:08:18;6.55;;;3.45;;
27505;SDS011;14939;43.596;1.320;2023-12-07T12:10:44;6.00;;;3.47;;
27505;SDS011;14939;43.596;1.320;2023-12-07T12:13:10;5.97;;;3.10;;
27505;SDS011;14939;43.596;1.320;2023-12-07T12:15:40;7.13;;;3.05;;
27505;SDS011;14939;43.596;1.320;2023-12-07T12:18:06;5.85;;;3.60;;
27505;SDS011;14939;43.596;1.320;2023-12-07T12:20:33;9.75;;;3.58;;
27505;SDS011;14939;43.596;1.320;2023-12-07T12:22:59;11.20;;;5.68;;
27505;SDS011;14939;43.596;1.320;2023-12-07T12:25:28;15.10;;;6.45;;
27505;SDS011;14939;43.596;1.320;2023-12-07T12:27:59;9.30;;;4.60;;
27505;SDS011;14939;43.596;1.320;2023-12-07T12:30:28;6.63;;;3.20;;
27505;SDS011;14939;43.596;1.320;2023-12-07T12:32:55;6.75;;;3.47;;
27505;SDS011;14939;43.596;1.320;2023-12-07T12:35:21;5.70;;;3.08;;
27505;SDS011;14939;43.596;1.320;2023-12-07T12:37:48;7.65;;;3.50;;
27505;SDS011;14939;43.596;1.320;2023-12-07T12:40:18;13.93;;;3.03;;
27505;SDS011;14939;43.596;1.320;2023-12-07T12:42:45;5.70;;;3.35;;
27505;SDS011;14939;43.596;1.320;2023-12-07T12:45:12;5.20;;;2.90;;
27505;SDS011;14939;43.596;1.320;2023-12-07T12:47:39;5.53;;;2.72;;
27505;SDS011;14939;43.596;1.320;2023-12-07T12:50:11;8.93;;;3.45;;
27505;SDS011;14939;43.596;1.320;2023-12-07T12:52:39;8.60;;;3.25;;
27505;SDS011;14939;43.596;1.320;2023-12-07T12:55:09;5.22;;;2.60;;
27505;SDS011;14939;43.596;1.320;2023-12-07T12:57:35;8.55;;;3.10;;
27505;SDS011;14939;43.596;1.320;2023-12-07T13:00:03;6.13;;;2.90;;
27505;SDS011;14939;43.596;1.320;2023-12-07T13:02:29;8.05;;;3.10;;
27505;SDS011;14939;43.596;1.320;2023-12-07T13:04:55;5.65;;;2.90;;
27505;SDS011;14939;43.596;1.320;2023-12-07T13:07:23;7.40;;;3.20;;
27505;SDS011;14939;43.596;1.320;2023-12-07T13:09:52;6.35;;;3.58;;
27505;SDS011;14939;43.596;1.320;2023-12-07T13:12:17;5.88;;;2.67;;
27505;SDS011;14939;43.596;1.320;2023-12-07T13:14:43;6.10;;;2.70;;
27505;SDS011;14939;43.596;1.320;2023-12-07T13:17:09;5.72;;;3.08;;
27505;SDS011;14939;43.596;1.320;2023-12-07T13:19:34;9.65;;;3.28;;
27505;SDS011;14939;43.596;1.320;2023-12-07T13:22:00;6.43;;;2.70;;
27505;SDS011;14939;43.596;1.320;2023-12-07T13:24:28;6.15;;;2.78;;
27505;SDS011;14939;43.596;1.320;2023-12-07T13:26:54;5.57;;;2.78;;
27505;SDS011;14939;43.596;1.320;2023-12-07T13:29:19;6.45;;;2.55;;
27505;SDS011;14939;43.596;1.320;2023-12-07T13:31:48;4.07;;;2.33;;
27505;SDS011;14939;43.596;1.320;2023-12-07T13:34:14;6.80;;;2.83;;
27505;SDS011;14939;43.596;1.320;2023-12-07T13:36:40;7.45;;;3.20;;
27505;SDS011;14939;43.596;1.320;2023-12-07T13:39:06;5.50;;;2.90;;
27505;SDS011;14939;43.596;1.320;2023-12-07T13:41:33;7.07;;;3.15;;
27505;SDS011;14939;43.596;1.320;2023-12-07T13:43:59;10.18;;;3.40;;
27505;SDS011;14939;43.596;1.320;2023-12-07T13:46:26;5.35;;;2.33;;
27505;SDS011;14939;43.596;1.320;2023-12-07T13:48:52;5.93;;;2.58;;
27505;SDS011;14939;43.596;1.320;2023-12-07T13:51:18;5.10;;;2.80;;
27505;SDS011;14939;43.596;1.320;2023-12-07T13:53:45;4.55;;;3.10;;
27505;SDS011;14939;43.596;1.320;2023-12-07T13:56:10;5.15;;;2.97;;
27505;SDS011;14939;43.596;1.320;2023-12-07T13:58:36;5.90;;;3.20;;
27505;SDS011;14939;43.596;1.320;2023-12-07T14:01:02;16.27;;;4.80;;
27505;SDS011;14939;43.596;1.320;2023-12-07T14:03:28;9.93;;;4.20;;
27505;SDS011;14939;43.596;1.320;2023-12-07T14:05:53;10.32;;;3.78;;
27505;SDS011;14939;43.596;1.320;2023-12-07T14:08:20;8.10;;;3.60;;
27505;SDS011;14939;43.596;1.320;2023-12-07T14:10:45;7.00;;;4.47;;
27505;SDS011;14939;43.596;1.320;2023-12-07T14:13:11;9.45;;;4.70;;
27505;SDS011;14939;43.596;1.320;2023-12-07T14:15:37;7.38;;;4.70;;
27505;SDS011;14939;43.596;1.320;2023-12-07T14:18:02;6.07;;;3.60;;
27505;SDS011;14939;43.596;1.320;2023-12-07T14:20:29;8.88;;;3.45;;
27505;SDS011;14939;43.596;1.320;2023-12-07T14:22:56;8.23;;;3.28;;
27505;SDS011;14939;43.596;1.320;2023-12-07T14:25:21;6.03;;;3.20;;
27505;SDS011;14939;43.596;1.320;2023-12-07T14:27:47;6.63;;;2.95;;
27505;SDS011;14939;43.596;1.320;2023-12-07T14:30:13;5.13;;;3.00;;
27505;SDS011;14939;43.596;1.320;2023-12-07T14:32:41;10.32;;;3.60;;
27505;SDS011;14939;43.596;1.320;2023-12-07T14:35:08;9.35;;;3.63;;
27505;SDS011;14939;43.596;1.320;2023-12-07T14:37:34;5.50;;;2.95;;